This is the latest recevied weather packets stored in our database for station/object N0ZO-13. If no packets are shown the sender has not sent any weather packets the latest 10 day(s).
| Time | Temp. | Humidity | Pressure | Rain* | Wind** | Luminosity | Snow |
|---|---|---|---|---|---|---|---|
| 1778139380 | 20° C | 99% | 1003.7 hPa | 20.32 mm | - | 0 W/m² | - |
| 1778138184 | 20° C | 99% | 1004.5 hPa | 2.54 mm | - | 0 W/m² | - |
| 1778135777 | 20.56° C | 99% | 1005.1 hPa | 0 mm | - | 0 W/m² | - |
| 1778135206 | 20.56° C | 99% | 1005.2 hPa | 0 mm | - | 0 W/m² | - |
| 1778133989 | 20.56° C | 99% | 1006.2 hPa | 0 mm | - | 0 W/m² | - |
| 1778128585 | 20.56° C | 99% | 1006 hPa | 12.95 mm | - | 0 W/m² | - |
| 1778127980 | 20.56° C | 99% | 1006.7 hPa | 13.21 mm | - | 0 W/m² | - |
| 1778125002 | 21.11° C | 98% | 1006.3 hPa | 8.89 mm | - | 0 W/m² | - |
| 1778124377 | 21.11° C | 97% | 1007.3 hPa | 6.6 mm | - | 0 W/m² | - |
| 1778118984 | 21.67° C | 97% | 1006.3 hPa | 0.25 mm | - | 0 W/m² | - |
| 1778114776 | 22.22° C | 96% | 1005.2 hPa | 0.25 mm | - | 0 W/m² | - |
| 1778108800 | 23.89° C | 92% | 1006.5 hPa | 0 mm | - | 0 W/m² | - |
| 1778106976 | 23.89° C | 93% | 1006.5 hPa | 0 mm | - | 2 W/m² | - |
| 1778104582 | 23.33° C | 93% | 1006.9 hPa | 0 mm | - | 0 W/m² | - |
| 1778102210 | 23.89° C | 91% | 1006.7 hPa | 0.76 mm | - | 0 W/m² | - |
| 1778101605 | 23.89° C | 90% | 1006.9 hPa | 0.76 mm | - | 0 W/m² | - |
| 1778095578 | 26.11° C | 78% | 1008.4 hPa | 0 mm | - | 0 W/m² | - |
| 1778088980 | 27.22° C | 75% | 1008.6 hPa | 0 mm | - | 100 W/m² | - |
| 1778085379 | 25° C | 78% | 1009.1 hPa | 0 mm | - | 54 W/m² | - |
| 1778082384 | 25.56° C | 76% | 1008.9 hPa | 0 mm | - | 10 W/m² | - |
| 1778078188 | 24.44° C | 80% | 1009.1 hPa | 0 mm | - | 66 W/m² | - |
| 1778073976 | 21.67° C | 88% | 1009.6 hPa | 0 mm | - | 10 W/m² | - |
| 1778069209 | 20° C | 90% | 1008.7 hPa | 0 mm | - | 0 W/m² | - |
| 1778066205 | 19.44° C | 90% | 1008.2 hPa | 0 mm | - | 0 W/m² | - |
| 1778061980 | 18.89° C | 88% | 1007.3 hPa | 0 mm | - | 0 W/m² | - |
* Rain latest hour (hover to see other rain measurements)
** Current wind speed in m/s (hover to see current wind gust speed)